createdAt,value
2022-08-25T00:00:44.764Z,63.21
2022-08-25T00:01:51.219Z,63.27
2022-08-25T00:02:56.418Z,63.45
2022-08-25T00:04:00.441Z,63.38
2022-08-25T00:05:05.039Z,63.43
2022-08-25T00:06:09.751Z,63.53
2022-08-25T00:07:12.437Z,63.46
2022-08-25T00:08:20.745Z,63.46
2022-08-25T00:09:25.983Z,63.53
2022-08-25T00:10:33.896Z,63.59
2022-08-25T00:11:40.780Z,63.36
2022-08-25T00:12:50.895Z,63.49
2022-08-25T00:13:57.853Z,63.71
2022-08-25T00:15:00.058Z,63.49
2022-08-25T00:16:03.047Z,63.53
2022-08-25T00:17:06.492Z,63.52
2022-08-25T00:18:16.593Z,63.66
2022-08-25T00:19:25.847Z,63.62
2022-08-25T00:20:29.025Z,63.48
2022-08-25T00:21:31.981Z,63.69
2022-08-25T00:22:34.257Z,63.73
2022-08-25T00:23:36.868Z,63.81
2022-08-25T00:24:39.753Z,63.82
2022-08-25T00:25:42.006Z,63.82
2022-08-25T00:26:47.116Z,63.68
2022-08-25T00:27:53.001Z,63.99
2022-08-25T00:29:02.037Z,63.89
2022-08-25T00:30:06.008Z,63.80
2022-08-25T00:31:14.717Z,63.63
2022-08-25T00:32:18.485Z,63.92
2022-08-25T00:33:21.227Z,63.95
2022-08-25T00:34:29.826Z,63.62
2022-08-25T00:35:32.090Z,63.84
2022-08-25T00:36:35.012Z,64.00
2022-08-25T00:37:38.044Z,63.65
2022-08-25T00:38:42.455Z,63.93
2022-08-25T00:39:45.360Z,63.99
2022-08-25T00:41:06.026Z,63.79
2022-08-25T00:42:15.910Z,63.87
2022-08-25T00:43:18.890Z,63.66
2022-08-25T00:44:21.671Z,63.75
2022-08-25T00:45:24.030Z,64.06
2022-08-25T00:46:33.658Z,63.74
2022-08-25T00:47:36.609Z,63.92
2022-08-25T00:48:40.513Z,63.86
2022-08-25T00:49:47.857Z,63.85
2022-08-25T00:50:59.670Z,63.92
2022-08-25T00:52:07.446Z,63.79
2022-08-25T00:53:09.935Z,63.75
2022-08-25T00:54:17.757Z,63.99
2022-08-25T00:55:49.960Z,63.84
2022-08-25T00:56:52.317Z,63.76
2022-08-25T00:58:00.263Z,64.16
2022-08-25T00:59:03.727Z,63.83
2022-08-25T01:00:27.537Z,63.85
2022-08-25T01:01:30.637Z,64.11
2022-08-25T01:02:41.854Z,63.78
2022-08-25T01:03:44.242Z,63.83
2022-08-25T01:04:49.856Z,63.90
2022-08-25T01:05:53.728Z,63.92
2022-08-25T01:07:00.223Z,64.38
2022-08-25T01:08:06.739Z,64.07
2022-08-25T01:09:15.293Z,64.36
2022-08-25T01:10:19.210Z,64.17
2022-08-25T01:11:21.934Z,64.21
2022-08-25T01:12:24.621Z,64.48
2022-08-25T01:13:33.901Z,64.10
2022-08-25T01:14:39.759Z,64.17
2022-08-25T01:15:46.787Z,64.08
2022-08-25T01:16:50.983Z,64.09
2022-08-25T01:17:57.753Z,64.27
2022-08-25T01:19:03.064Z,64.13
2022-08-25T01:20:08.795Z,64.01
2022-08-25T01:21:12.230Z,64.10
2022-08-25T01:22:17.466Z,64.11
2022-08-25T01:23:20.243Z,64.18
2022-08-25T01:24:37.246Z,64.06
2022-08-25T01:25:48.615Z,64.02
2022-08-25T01:26:53.474Z,64.11
2022-08-25T01:27:55.981Z,64.21
2022-08-25T01:29:22.584Z,64.16
2022-08-25T01:30:25.774Z,64.30
2022-08-25T01:31:32.341Z,64.32
2022-08-25T01:32:35.175Z,64.23
2022-08-25T01:33:38.071Z,64.30
2022-08-25T01:34:42.789Z,64.44
2022-08-25T01:35:45.920Z,64.32
2022-08-25T01:36:48.573Z,64.56
2022-08-25T01:37:50.852Z,64.42
2022-08-25T01:38:53.898Z,64.58
2022-08-25T01:39:56.306Z,64.65
2022-08-25T01:40:58.793Z,64.67
2022-08-25T01:42:28.090Z,64.28
2022-08-25T01:43:37.301Z,64.48
2022-08-25T01:44:44.295Z,64.61
2022-08-25T01:45:48.371Z,64.76
2022-08-25T01:46:54.755Z,64.54
2022-08-25T01:47:59.428Z,64.61
2022-08-25T01:49:06.888Z,64.88
2022-08-25T01:50:09.865Z,64.45
2022-08-25T01:51:14.355Z,64.58
2022-08-25T01:52:37.292Z,64.55
2022-08-25T01:53:41.701Z,64.76
2022-08-25T01:54:44.048Z,64.61
2022-08-25T01:55:52.112Z,64.93
2022-08-25T01:56:54.317Z,64.75
2022-08-25T01:57:58.338Z,64.62
2022-08-25T01:59:01.205Z,64.75
2022-08-25T02:00:07.248Z,64.76
2022-08-25T02:01:18.800Z,64.61
2022-08-25T02:02:24.097Z,64.80
2022-08-25T02:03:29.959Z,64.66
2022-08-25T02:04:35.305Z,64.89
2022-08-25T02:05:37.509Z,65.09
2022-08-25T02:06:41.034Z,65.23
2022-08-25T02:07:44.101Z,65.09
2022-08-25T02:08:50.172Z,64.94
2022-08-25T02:09:53.541Z,65.19
2022-08-25T02:10:59.145Z,65.12
2022-08-25T02:12:01.382Z,64.84
2022-08-25T02:13:04.529Z,64.81
2022-08-25T02:14:12.026Z,65.17
2022-08-25T02:15:14.686Z,65.07
2022-08-25T02:16:25.133Z,64.91
2022-08-25T02:17:28.747Z,64.86
2022-08-25T02:18:30.962Z,65.29
2022-08-25T02:19:36.418Z,65.05
2022-08-25T02:20:38.901Z,65.07
2022-08-25T02:21:41.788Z,65.09
2022-08-25T02:22:53.046Z,65.18
2022-08-25T02:23:59.547Z,64.97
2022-08-25T02:25:03.188Z,64.92
2022-08-25T02:26:05.662Z,65.22
2022-08-25T02:27:08.306Z,64.93
2022-08-25T02:28:11.071Z,64.99
2022-08-25T02:29:13.816Z,64.97
2022-08-25T02:30:16.797Z,64.70
2022-08-25T02:31:21.874Z,64.82
2022-08-25T02:32:27.116Z,65.10
2022-08-25T02:33:32.465Z,64.95
2022-08-25T02:34:35.561Z,65.13
2022-08-25T02:35:38.065Z,64.96
2022-08-25T02:36:40.350Z,65.00
2022-08-25T02:37:42.579Z,65.13
2022-08-25T02:38:45.539Z,64.87
2022-08-25T02:39:47.950Z,65.05
2022-08-25T02:40:51.712Z,64.99
2022-08-25T02:41:54.369Z,65.29
2022-08-25T02:42:57.555Z,65.07
2022-08-25T02:44:01.749Z,64.94
2022-08-25T02:45:05.160Z,65.38
2022-08-25T02:46:08.076Z,65.01
2022-08-25T02:47:10.849Z,65.17
2022-08-25T02:48:13.677Z,65.13
2022-08-25T02:49:18.554Z,65.30
2022-08-25T02:50:24.067Z,65.07
2022-08-25T02:51:30.204Z,65.08
2022-08-25T02:52:32.970Z,65.38
2022-08-25T02:53:36.316Z,65.17
2022-08-25T02:54:38.689Z,65.18
2022-08-25T02:55:43.474Z,65.24
2022-08-25T02:56:52.025Z,65.19
2022-08-25T02:57:54.288Z,65.22
2022-08-25T02:58:56.537Z,65.28
2022-08-25T02:59:59.062Z,65.51
2022-08-25T03:01:01.589Z,65.59
2022-08-25T03:02:04.517Z,65.65
2022-08-25T03:03:09.248Z,65.29
2022-08-25T03:04:12.469Z,65.17
2022-08-25T03:05:15.511Z,65.43
2022-08-25T03:06:20.767Z,65.37
2022-08-25T03:07:22.991Z,65.52
2022-08-25T03:08:27.561Z,65.57
2022-08-25T03:09:30.153Z,65.60
2022-08-25T03:10:36.959Z,65.42
2022-08-25T03:11:39.464Z,65.74
2022-08-25T03:12:41.803Z,65.38
2022-08-25T03:13:44.039Z,65.51
2022-08-25T03:14:46.217Z,65.69
2022-08-25T03:15:49.415Z,65.63
2022-08-25T03:16:51.709Z,65.36
2022-08-25T03:17:55.316Z,65.17
2022-08-25T03:18:58.348Z,65.38
2022-08-25T03:20:05.899Z,65.26
2022-08-25T03:21:08.750Z,65.49
2022-08-25T03:22:10.960Z,65.17
2022-08-25T03:23:13.249Z,65.52
2022-08-25T03:24:16.158Z,65.45
2022-08-25T03:25:40.019Z,65.40
2022-08-25T03:26:54.367Z,65.52
2022-08-25T03:27:57.171Z,65.41
2022-08-25T03:29:00.384Z,65.55
2022-08-25T03:30:03.575Z,65.38
2022-08-25T03:31:05.980Z,65.46
2022-08-25T03:32:08.465Z,65.21
2022-08-25T03:33:11.232Z,65.56
2022-08-25T03:34:17.012Z,65.66
2022-08-25T03:35:20.269Z,65.64
2022-08-25T03:36:23.255Z,65.45
2022-08-25T03:37:25.491Z,65.45
2022-08-25T03:38:28.358Z,65.24
2022-08-25T03:39:30.586Z,65.31
2022-08-25T03:40:33.124Z,65.56
2022-08-25T03:41:39.138Z,65.57
2022-08-25T03:42:44.984Z,65.60
2022-08-25T03:43:48.893Z,65.27
2022-08-25T03:44:55.125Z,65.26
2022-08-25T03:45:57.463Z,65.18
2022-08-25T03:47:07.477Z,65.19
2022-08-25T03:48:09.702Z,65.30
2022-08-25T03:49:18.587Z,65.19
2022-08-25T03:50:22.427Z,65.42
2022-08-25T03:51:34.895Z,65.24
2022-08-25T03:52:42.278Z,65.46
2022-08-25T03:53:47.173Z,65.19
2022-08-25T03:54:49.552Z,65.48
2022-08-25T03:55:51.774Z,65.38
2022-08-25T03:56:54.462Z,65.48
2022-08-25T03:57:56.828Z,65.40
2022-08-25T03:58:59.221Z,65.35
2022-08-25T04:00:01.592Z,65.20
2022-08-25T04:01:19.839Z,65.31
2022-08-25T04:02:22.171Z,65.42
2022-08-25T04:03:24.462Z,65.31
2022-08-25T04:04:28.964Z,65.50
2022-08-25T04:05:33.887Z,65.56
2022-08-25T04:06:38.156Z,65.47
2022-08-25T04:07:40.509Z,65.32
2022-08-25T04:08:42.940Z,65.47
2022-08-25T04:09:45.227Z,65.35
2022-08-25T04:10:48.684Z,65.30
2022-08-25T04:11:53.108Z,65.60
2022-08-25T04:12:56.226Z,65.57
2022-08-25T04:15:05.790Z,65.65
2022-08-25T04:16:14.288Z,65.41
2022-08-25T04:17:17.630Z,65.57
2022-08-25T04:18:19.833Z,65.24
2022-08-25T04:19:22.556Z,65.55
2022-08-25T04:20:24.766Z,65.62
2022-08-25T04:21:28.241Z,65.62
2022-08-25T04:22:31.934Z,65.72
2022-08-25T04:23:41.225Z,65.58
2022-08-25T04:24:43.416Z,65.63
2022-08-25T04:25:46.162Z,65.90
2022-08-25T04:26:51.472Z,65.82
2022-08-25T04:27:55.213Z,65.75
2022-08-25T04:29:00.147Z,66.05
2022-08-25T04:30:06.346Z,66.05
2022-08-25T04:31:10.845Z,65.73
2022-08-25T04:32:14.044Z,66.07
2022-08-25T04:33:16.332Z,65.81
2022-08-25T04:34:28.424Z,66.05
2022-08-25T04:35:33.510Z,66.12
2022-08-25T04:36:36.729Z,66.23
2022-08-25T04:37:38.985Z,65.94
2022-08-25T04:38:42.961Z,66.25
2022-08-25T04:39:45.225Z,65.99
2022-08-25T04:40:56.582Z,65.89
2022-08-25T04:42:02.961Z,65.83
2022-08-25T04:43:05.143Z,66.16
2022-08-25T04:44:10.402Z,66.11
2022-08-25T04:45:12.624Z,65.97
2022-08-25T04:46:20.087Z,66.19
2022-08-25T04:47:23.340Z,66.20
2022-08-25T04:48:26.413Z,66.49
2022-08-25T04:49:28.894Z,66.16
2022-08-25T04:50:31.168Z,66.36
2022-08-25T04:51:39.723Z,66.33
2022-08-25T04:52:45.006Z,66.43
2022-08-25T04:53:47.295Z,66.27
2022-08-25T04:54:49.492Z,66.30
2022-08-25T04:55:59.574Z,66.81
2022-08-25T04:58:23.016Z,66.88
2022-08-25T04:59:29.899Z,66.55
2022-08-25T05:00:35.842Z,66.54
2022-08-25T05:01:39.330Z,66.41
2022-08-25T05:02:41.497Z,66.43
2022-08-25T05:03:45.366Z,66.62
2022-08-25T05:04:47.630Z,66.42
2022-08-25T05:05:52.583Z,66.25
2022-08-25T05:06:55.057Z,66.58
2022-08-25T05:07:58.008Z,66.45
2022-08-25T05:09:01.825Z,66.27
2022-08-25T05:10:05.377Z,66.16
2022-08-25T05:11:09.394Z,66.50
2022-08-25T05:12:12.386Z,66.27
2022-08-25T05:13:14.836Z,66.39
2022-08-25T05:14:21.706Z,66.32
2022-08-25T05:15:46.757Z,66.47
2022-08-25T05:16:49.704Z,66.46
2022-08-25T05:17:55.810Z,66.45
2022-08-25T05:18:58.587Z,66.19
2022-08-25T05:20:01.151Z,66.25
2022-08-25T05:21:13.716Z,66.44
2022-08-25T05:22:15.907Z,66.50
2022-08-25T05:23:18.128Z,66.24
2022-08-25T05:24:22.235Z,66.37
2022-08-25T05:25:24.660Z,66.18
2022-08-25T05:26:33.469Z,66.40
2022-08-25T05:27:38.217Z,66.08
2022-08-25T05:28:42.142Z,65.92
2022-08-25T05:29:49.760Z,66.13
2022-08-25T05:30:51.984Z,66.04
2022-08-25T05:31:54.571Z,66.04
2022-08-25T05:32:57.386Z,66.00
2022-08-25T05:34:00.516Z,65.82
2022-08-25T05:35:03.137Z,65.82
2022-08-25T05:36:09.892Z,66.00
2022-08-25T05:37:12.383Z,65.62
2022-08-25T05:38:15.652Z,65.93
2022-08-25T05:39:18.995Z,65.57
2022-08-25T05:40:21.892Z,65.80
2022-08-25T05:41:29.062Z,65.73
2022-08-25T05:42:35.021Z,65.75
2022-08-25T05:43:39.911Z,65.82
2022-08-25T05:44:42.354Z,65.66
2022-08-25T05:45:44.788Z,65.61
2022-08-25T05:46:47.368Z,65.52
2022-08-25T05:47:50.111Z,65.58
2022-08-25T05:48:53.754Z,65.39
2022-08-25T05:49:56.338Z,65.51
2022-08-25T05:51:03.472Z,65.59
2022-08-25T05:52:05.723Z,65.56
2022-08-25T05:53:07.952Z,65.63
2022-08-25T05:54:10.270Z,65.44
2022-08-25T05:55:12.651Z,65.45
2022-08-25T05:56:15.813Z,65.61
2022-08-25T05:57:18.019Z,65.97
2022-08-25T05:58:21.503Z,66.03
2022-08-25T05:59:24.035Z,66.24
2022-08-25T06:00:26.569Z,66.29
2022-08-25T06:01:48.309Z,66.59
2022-08-25T06:02:51.238Z,66.31
2022-08-25T06:03:54.519Z,66.79
2022-08-25T06:04:58.845Z,66.91
2022-08-25T06:06:10.954Z,67.09
2022-08-25T06:07:15.854Z,67.10
2022-08-25T06:08:20.041Z,66.53
2022-08-25T06:09:22.580Z,66.88
2022-08-25T06:10:25.366Z,66.82
2022-08-25T06:11:27.913Z,66.58
2022-08-25T06:12:32.606Z,66.48
2022-08-25T06:13:35.580Z,66.20
2022-08-25T06:14:41.026Z,66.10
2022-08-25T06:15:43.930Z,65.71
2022-08-25T06:16:51.572Z,65.64
2022-08-25T06:17:56.746Z,65.38
2022-08-25T06:19:08.022Z,65.41
2022-08-25T06:20:14.136Z,65.67
2022-08-25T06:21:18.620Z,65.41
2022-08-25T06:22:22.142Z,65.43
2022-08-25T06:23:24.389Z,65.01
2022-08-25T06:24:28.310Z,64.56
2022-08-25T06:25:33.637Z,64.45
2022-08-25T06:26:35.897Z,64.41
2022-08-25T06:27:38.912Z,64.00
2022-08-25T06:28:43.311Z,63.57
2022-08-25T06:29:45.609Z,63.87
2022-08-25T06:30:50.441Z,63.54
2022-08-25T06:31:52.896Z,63.52
2022-08-25T06:33:03.152Z,63.08
2022-08-25T06:34:07.284Z,62.66
2022-08-25T06:35:13.104Z,62.29
2022-08-25T06:36:15.861Z,61.87
2022-08-25T06:37:20.360Z,61.47
2022-08-25T06:38:26.361Z,61.43
2022-08-25T06:39:28.649Z,61.39
2022-08-25T06:40:30.844Z,60.96
2022-08-25T06:41:36.870Z,60.63
2022-08-25T06:42:39.730Z,60.37
2022-08-25T06:43:48.095Z,59.95
2022-08-25T06:44:51.539Z,59.79
2022-08-25T06:45:53.719Z,59.85
2022-08-25T06:46:55.970Z,59.44
2022-08-25T06:47:59.569Z,59.38
2022-08-25T06:49:01.878Z,59.00
2022-08-25T06:50:04.955Z,58.62
2022-08-25T06:51:16.270Z,57.71
2022-08-25T06:52:19.928Z,57.46
2022-08-25T06:53:22.111Z,57.48
2022-08-25T06:54:24.380Z,57.36
2022-08-25T06:55:26.544Z,56.96
2022-08-25T06:56:29.201Z,56.72
2022-08-25T06:57:35.992Z,56.15
2022-08-25T06:58:39.250Z,56.13
2022-08-25T06:59:41.704Z,56.05
2022-08-25T07:00:44.593Z,55.66
2022-08-25T07:01:49.499Z,55.37
2022-08-25T07:02:52.029Z,55.02
2022-08-25T07:03:57.773Z,54.49
2022-08-25T07:05:00.548Z,54.17
2022-08-25T07:06:04.711Z,53.45
2022-08-25T07:07:14.269Z,53.08
2022-08-25T07:08:16.451Z,52.87
2022-08-25T07:09:19.601Z,52.66
2022-08-25T07:10:21.811Z,52.65
2022-08-25T07:11:24.787Z,52.31
2022-08-25T07:12:27.246Z,52.25
2022-08-25T07:13:30.163Z,51.82
2022-08-25T07:14:32.382Z,51.65
2022-08-25T07:15:38.632Z,51.41
2022-08-25T07:16:43.149Z,51.58
2022-08-25T07:17:50.923Z,51.34
2022-08-25T07:19:00.299Z,50.61
2022-08-25T07:20:02.813Z,50.48
2022-08-25T07:21:05.413Z,50.49
2022-08-25T07:22:11.285Z,50.31
2022-08-25T07:23:13.516Z,49.95
2022-08-25T07:24:16.474Z,50.12
2022-08-25T07:25:18.853Z,50.18
2022-08-25T07:26:37.338Z,50.25
2022-08-25T07:27:41.262Z,49.92
2022-08-25T07:30:08.796Z,49.29
2022-08-25T07:31:17.169Z,49.17
2022-08-25T07:32:20.191Z,48.74
2022-08-25T07:33:23.353Z,48.81
2022-08-25T07:34:51.846Z,48.33
2022-08-25T07:35:54.915Z,47.96
2022-08-25T07:36:59.106Z,48.09
2022-08-25T07:38:09.058Z,47.81
2022-08-25T07:39:12.725Z,47.82
2022-08-25T07:40:18.427Z,47.84
2022-08-25T07:41:20.853Z,47.20
2022-08-25T07:42:27.735Z,47.05
2022-08-25T07:43:30.035Z,47.11
2022-08-25T07:44:33.264Z,47.33
2022-08-25T07:45:49.199Z,47.30
2022-08-25T07:46:52.057Z,46.58
2022-08-25T07:48:09.174Z,46.28
2022-08-25T07:49:16.781Z,45.75
2022-08-25T07:50:20.541Z,45.60
2022-08-25T07:51:23.163Z,45.13
2022-08-25T07:52:25.565Z,45.06
2022-08-25T07:53:27.983Z,45.25
2022-08-25T07:54:34.574Z,44.76
2022-08-25T07:55:38.148Z,44.87
2022-08-25T07:56:43.080Z,44.72
2022-08-25T07:57:49.869Z,44.91
2022-08-25T07:58:56.304Z,44.49
2022-08-25T07:59:59.028Z,44.39
2022-08-25T08:01:01.213Z,44.79
2022-08-25T08:02:05.300Z,44.66
2022-08-25T08:03:19.891Z,44.31
2022-08-25T08:04:36.528Z,44.49
2022-08-25T08:05:41.558Z,44.34
2022-08-25T08:06:43.868Z,44.15
2022-08-25T08:07:48.918Z,43.80
2022-08-25T08:08:54.751Z,43.82
2022-08-25T08:10:32.885Z,44.01
2022-08-25T08:11:24.049Z,43.97
2022-08-25T08:12:27.240Z,44.11
2022-08-25T08:13:29.668Z,44.12
2022-08-25T08:14:32.313Z,43.79
2022-08-25T08:15:35.672Z,44.21
2022-08-25T08:16:39.746Z,44.50
2022-08-25T08:17:45.619Z,44.00
2022-08-25T08:18:48.071Z,44.29
2022-08-25T08:19:50.599Z,44.47
2022-08-25T08:20:53.134Z,44.33
2022-08-25T08:21:56.461Z,44.23
2022-08-25T08:23:00.435Z,44.25
2022-08-25T08:24:14.779Z,44.26
2022-08-25T08:25:27.860Z,44.46
2022-08-25T08:26:55.156Z,44.35
2022-08-25T08:27:54.911Z,44.27
2022-08-25T08:28:57.485Z,44.38
2022-08-25T08:30:00.474Z,44.42
2022-08-25T08:31:03.589Z,44.05
2022-08-25T08:32:13.575Z,43.74
2022-08-25T08:33:15.813Z,43.97
2022-08-25T08:34:24.971Z,43.96
2022-08-25T08:35:27.719Z,43.75
2022-08-25T08:36:29.919Z,43.89
2022-08-25T08:37:32.437Z,44.44
2022-08-25T08:38:40.531Z,44.02
2022-08-25T08:39:46.244Z,44.20
2022-08-25T08:41:23.164Z,44.30
2022-08-25T08:42:53.706Z,44.23
2022-08-25T08:44:17.586Z,44.63
2022-08-25T08:45:28.965Z,44.46
2022-08-25T08:46:59.251Z,44.12
2022-08-25T08:48:13.638Z,44.12
2022-08-25T08:50:06.485Z,44.68
2022-08-25T08:51:33.552Z,44.13
2022-08-25T08:52:48.703Z,43.93
2022-08-25T08:54:04.731Z,44.02
2022-08-25T08:55:30.394Z,44.17
2022-08-25T08:56:38.884Z,44.36
2022-08-25T08:57:52.967Z,44.00
2022-08-25T08:59:05.635Z,44.11
2022-08-25T09:00:11.747Z,43.87
2022-08-25T09:01:23.437Z,44.30
2022-08-25T09:02:39.173Z,44.11
2022-08-25T09:04:00.076Z,44.12
2022-08-25T09:05:08.191Z,44.35
2022-08-25T09:06:26.065Z,44.71
2022-08-25T09:07:55.004Z,44.65
2022-08-25T09:09:06.978Z,44.63
2022-08-25T09:10:10.405Z,44.55
2022-08-25T09:11:31.772Z,44.66
2022-08-25T09:12:48.161Z,44.83
2022-08-25T09:13:50.791Z,45.15
2022-08-25T09:15:13.565Z,45.04
2022-08-25T09:16:58.406Z,45.23
2022-08-25T09:18:19.979Z,45.27
2022-08-25T09:19:43.091Z,45.28
2022-08-25T09:21:03.191Z,45.24
2022-08-25T09:22:34.011Z,45.21
2022-08-25T09:23:44.706Z,44.49
2022-08-25T09:25:21.939Z,44.88
2022-08-25T09:26:36.307Z,44.83
2022-08-25T09:27:39.727Z,45.13
2022-08-25T09:28:55.499Z,45.52
2022-08-25T09:30:05.147Z,45.53
2022-08-25T09:31:26.448Z,45.31
2022-08-25T09:32:38.665Z,45.47
2022-08-25T09:33:44.822Z,45.93
2022-08-25T09:34:51.141Z,45.70
2022-08-25T09:35:55.515Z,45.81
2022-08-25T09:37:03.951Z,45.45
2022-08-25T09:38:10.945Z,45.37
2022-08-25T09:39:13.182Z,45.25
2022-08-25T09:40:15.871Z,45.36
2022-08-25T09:41:56.358Z,45.87
2022-08-25T09:43:01.777Z,46.00
2022-08-25T09:44:04.119Z,46.36
2022-08-25T09:45:14.081Z,46.07
2022-08-25T09:46:29.370Z,46.30
2022-08-25T09:47:32.841Z,46.38
2022-08-25T09:48:46.482Z,46.45
2022-08-25T09:50:00.370Z,46.34
2022-08-25T09:51:18.280Z,46.49
2022-08-25T09:52:46.173Z,46.06
2022-08-25T09:54:03.339Z,45.91
2022-08-25T09:55:14.660Z,46.02
2022-08-25T09:56:21.786Z,45.35
2022-08-25T09:57:36.498Z,45.35
2022-08-25T09:58:38.682Z,45.38
2022-08-25T09:59:57.535Z,45.15
2022-08-25T10:01:13.709Z,45.56
2022-08-25T10:02:32.913Z,45.22
2022-08-25T10:03:36.712Z,44.44
2022-08-25T10:04:40.473Z,44.72
2022-08-25T10:05:45.872Z,44.80
2022-08-25T10:06:48.184Z,44.48
2022-08-25T10:08:24.769Z,44.69
2022-08-25T10:09:34.477Z,44.22
2022-08-25T10:10:44.505Z,44.43
2022-08-25T10:11:52.714Z,44.35
2022-08-25T10:13:16.043Z,43.98
2022-08-25T10:14:36.562Z,43.90
2022-08-25T10:15:39.865Z,43.34
2022-08-25T10:16:42.889Z,42.44
2022-08-25T10:17:58.213Z,41.86
2022-08-25T10:19:07.652Z,41.61
2022-08-25T10:20:10.038Z,41.16
2022-08-25T10:21:15.315Z,40.87
2022-08-25T10:22:36.309Z,41.10
2022-08-25T10:23:44.782Z,41.18
2022-08-25T10:24:47.331Z,41.37
2022-08-25T10:25:59.095Z,41.39
2022-08-25T10:27:29.129Z,40.20
2022-08-25T10:29:10.064Z,40.29
2022-08-25T10:30:20.073Z,40.73
2022-08-25T10:31:41.632Z,40.05
2022-08-25T10:33:15.388Z,40.41
2022-08-25T10:34:44.406Z,39.88
2022-08-25T10:36:12.541Z,39.85
2022-08-25T10:37:46.023Z,39.88
2022-08-25T10:38:58.466Z,40.14
2022-08-25T10:40:37.354Z,39.58
2022-08-25T10:42:10.368Z,39.91
2022-08-25T10:43:33.991Z,39.81
2022-08-25T10:45:16.810Z,39.48
2022-08-25T10:46:36.281Z,39.44
2022-08-25T10:48:00.962Z,39.23
2022-08-25T10:49:19.749Z,39.47
2022-08-25T10:51:07.197Z,39.49
2022-08-25T10:52:26.149Z,39.42
2022-08-25T10:53:45.811Z,39.06
2022-08-25T10:55:05.930Z,39.30
2022-08-25T10:56:17.260Z,38.74
2022-08-25T10:57:38.551Z,39.08
2022-08-25T10:59:00.091Z,39.98
2022-08-25T11:00:17.250Z,39.61
2022-08-25T11:01:43.651Z,40.20
2022-08-25T11:03:26.700Z,40.52
2022-08-25T11:04:38.513Z,39.67
2022-08-25T11:05:55.456Z,39.63
2022-08-25T11:07:00.494Z,39.60
2022-08-25T11:08:28.719Z,39.85
2022-08-25T11:09:38.807Z,39.83
2022-08-25T11:11:06.003Z,39.91
2022-08-25T11:12:25.633Z,39.70
2022-08-25T11:13:50.400Z,40.00
2022-08-25T11:14:57.801Z,39.88
2022-08-25T11:16:18.498Z,40.08
2022-08-25T11:17:27.443Z,39.54
2022-08-25T11:18:32.053Z,39.71
2022-08-25T11:19:48.412Z,39.77
2022-08-25T11:21:12.107Z,39.86
2022-08-25T11:22:26.044Z,39.80
2022-08-25T11:23:36.423Z,39.61
2022-08-25T11:24:50.359Z,39.83
2022-08-25T11:25:59.259Z,40.42
2022-08-25T11:27:05.717Z,40.06
2022-08-25T11:28:22.320Z,40.45
2022-08-25T11:29:31.396Z,40.54
2022-08-25T11:30:33.813Z,40.63
2022-08-25T11:31:43.928Z,40.75
2022-08-25T11:32:49.943Z,40.84
2022-08-25T11:33:54.749Z,40.78
2022-08-25T11:35:01.219Z,41.17
2022-08-25T11:36:29.404Z,41.15
2022-08-25T11:37:35.482Z,40.84
2022-08-25T11:39:16.905Z,41.08
2022-08-25T11:40:32.545Z,41.01
2022-08-25T11:41:49.204Z,40.92
2022-08-25T11:43:08.219Z,40.99
2022-08-25T11:44:51.787Z,41.53
2022-08-25T11:46:08.036Z,41.18
2022-08-25T11:47:35.136Z,41.22
2022-08-25T11:49:16.487Z,41.48
2022-08-25T11:50:37.107Z,41.38
2022-08-25T11:51:48.475Z,41.58
2022-08-25T11:52:56.694Z,41.50
2022-08-25T11:54:44.225Z,41.97
2022-08-25T11:55:53.858Z,41.51
2022-08-25T11:57:04.300Z,41.47
2022-08-25T11:58:41.003Z,41.20
2022-08-25T11:59:52.495Z,41.33
2022-08-25T12:00:57.407Z,41.17
2022-08-25T12:02:05.697Z,41.38
2022-08-25T12:03:32.765Z,40.71
2022-08-25T12:04:44.418Z,40.90
2022-08-25T12:06:12.575Z,40.75
2022-08-25T12:07:22.775Z,40.96
2022-08-25T12:08:53.192Z,41.12
2022-08-25T12:10:02.917Z,41.45
2022-08-25T12:11:11.238Z,41.36
2022-08-25T12:12:46.674Z,41.40
2022-08-25T12:13:51.520Z,41.26
2022-08-25T12:15:13.625Z,41.25
2022-08-25T12:16:55.732Z,41.40
2022-08-25T12:18:15.524Z,41.17
2022-08-25T12:19:26.350Z,41.77
2022-08-25T12:20:52.781Z,41.60
2022-08-25T12:22:18.988Z,41.80
2022-08-25T12:23:34.656Z,41.94
2022-08-25T12:25:18.150Z,42.12
2022-08-25T12:26:36.575Z,42.15
2022-08-25T12:28:02.445Z,41.79
2022-08-25T12:29:21.346Z,41.65
2022-08-25T12:30:36.600Z,41.88
2022-08-25T12:32:09.292Z,41.87
2022-08-25T12:33:41.958Z,42.43
2022-08-25T12:35:12.403Z,42.35
2022-08-25T12:36:33.488Z,42.55
2022-08-25T12:37:54.768Z,42.48
2022-08-25T12:39:16.221Z,42.67
2022-08-25T12:40:26.906Z,42.50
2022-08-25T12:41:33.771Z,42.48
2022-08-25T12:42:43.970Z,42.15
2022-08-25T12:43:48.922Z,41.97
2022-08-25T12:45:09.154Z,41.94
2022-08-25T12:46:28.064Z,41.99
2022-08-25T12:47:34.004Z,41.84
2022-08-25T12:48:36.207Z,41.52
2022-08-25T12:49:38.679Z,41.62
2022-08-25T12:50:44.691Z,41.70
2022-08-25T12:51:57.400Z,41.34
2022-08-25T12:53:10.227Z,41.62
2022-08-25T12:54:44.126Z,41.58
2022-08-25T12:55:55.606Z,42.12
2022-08-25T12:57:03.243Z,41.86
2022-08-25T12:58:07.779Z,41.84
2022-08-25T12:59:21.926Z,41.83
2022-08-25T13:02:49.648Z,41.61
2022-08-25T13:04:19.285Z,41.97
2022-08-25T13:06:01.421Z,42.08
2022-08-25T13:07:32.704Z,41.97
2022-08-25T13:09:12.467Z,42.15
2022-08-25T13:10:24.507Z,42.11
2022-08-25T13:11:39.000Z,41.76
2022-08-25T13:13:06.313Z,41.90
2022-08-25T13:14:20.025Z,41.98
2022-08-25T13:15:45.235Z,42.37
2022-08-25T13:16:58.054Z,42.11
2022-08-25T13:18:23.691Z,42.33
2022-08-25T13:19:28.000Z,42.02
2022-08-25T13:20:39.550Z,41.64
2022-08-25T13:21:46.302Z,41.20
2022-08-25T13:22:57.655Z,41.33
2022-08-25T13:24:06.932Z,41.42
2022-08-25T13:25:15.719Z,41.80
2022-08-25T13:26:29.765Z,41.48
2022-08-25T13:27:35.814Z,41.75
2022-08-25T13:28:40.827Z,41.25
2022-08-25T13:29:55.949Z,41.06
2022-08-25T13:31:12.372Z,40.69
2022-08-25T13:32:17.043Z,40.42
2022-08-25T13:33:22.185Z,40.26
2022-08-25T13:34:34.774Z,40.86
2022-08-25T13:35:37.441Z,40.38
2022-08-25T13:37:07.735Z,40.44
2022-08-25T13:38:15.346Z,40.31
2022-08-25T13:39:54.933Z,40.57
2022-08-25T13:41:08.210Z,40.37
2022-08-25T13:42:16.252Z,40.29
2022-08-25T13:43:18.679Z,40.44
2022-08-25T13:44:32.179Z,40.32
2022-08-25T13:45:46.312Z,40.74
2022-08-25T13:47:06.138Z,40.85
2022-08-25T13:48:22.931Z,41.24
2022-08-25T13:49:26.625Z,41.04
2022-08-25T13:50:32.019Z,40.97
2022-08-25T13:51:35.675Z,40.94
2022-08-25T13:52:37.911Z,40.75
2022-08-25T13:53:51.080Z,40.78
2022-08-25T13:54:59.735Z,41.19
2022-08-25T13:56:03.405Z,40.55
2022-08-25T13:57:25.089Z,41.28
2022-08-25T13:58:38.624Z,40.86
2022-08-25T13:59:51.830Z,40.66
2022-08-25T14:01:22.419Z,40.78
2022-08-25T14:02:49.655Z,40.60
2022-08-25T14:03:55.544Z,40.54
2022-08-25T14:05:06.498Z,40.79
2022-08-25T14:06:19.507Z,40.51
2022-08-25T14:07:34.052Z,39.98
2022-08-25T14:08:40.578Z,39.53
2022-08-25T14:09:50.384Z,39.94
2022-08-25T14:11:06.189Z,40.04
2022-08-25T14:12:08.887Z,39.68
2022-08-25T14:13:38.206Z,40.10
2022-08-25T14:14:58.265Z,39.92
2022-08-25T14:16:14.325Z,40.01
2022-08-25T14:17:38.567Z,39.64
2022-08-25T14:18:48.640Z,40.04
2022-08-25T14:19:50.870Z,39.50
2022-08-25T14:20:55.843Z,39.80
2022-08-25T14:22:02.164Z,39.74
2022-08-25T14:23:10.158Z,40.30
2022-08-25T14:24:22.597Z,40.57
2022-08-25T14:25:26.897Z,40.65
2022-08-25T14:26:29.150Z,40.71
2022-08-25T14:27:38.776Z,40.95
2022-08-25T14:28:44.275Z,41.09
2022-08-25T14:29:47.930Z,41.32
2022-08-25T14:31:00.306Z,41.19
2022-08-25T14:32:03.211Z,41.03
2022-08-25T14:33:09.819Z,41.25
2022-08-25T14:34:21.820Z,41.29
2022-08-25T14:35:24.458Z,41.17
2022-08-25T14:36:29.772Z,41.32
2022-08-25T14:37:32.849Z,41.42
2022-08-25T14:38:35.620Z,41.36
2022-08-25T14:39:40.887Z,41.69
2022-08-25T14:40:47.332Z,41.41
2022-08-25T14:41:53.905Z,41.42
2022-08-25T14:42:57.170Z,41.06
2022-08-25T14:44:03.419Z,41.18
2022-08-25T14:45:06.459Z,41.03
2022-08-25T14:46:24.617Z,41.13
2022-08-25T14:47:26.830Z,41.13
2022-08-25T14:48:35.377Z,41.17
2022-08-25T14:49:42.185Z,41.55
2022-08-25T14:50:46.197Z,41.28
2022-08-25T14:51:49.383Z,41.30
2022-08-25T14:52:52.304Z,41.45
2022-08-25T14:53:59.294Z,41.50
2022-08-25T14:55:04.073Z,41.17
2022-08-25T14:56:09.265Z,41.25